Time;durP1;ratioP1;P1;durP2;ratioP2;P2;SDS_P1;SDS_P2;PMS_P1;PMS_P2;Temp;Humidity;BMP_temperature;BMP_pressure;BME280_temperature;BME280_humidity;BME280_pressure;Samples;Min_cycle;Max_cycle;Signal;HPM_P1;HPM_P2
2021/09/16 00:00:52;;;;;;;;;;;;;;;21.85;29.39;98093.19;4904582;29;617;-79
2021/09/16 00:03:18;;;;;;;;;;;;;;;21.83;29.26;98084.38;4905117;29;722;-79
2021/09/16 00:05:43;;;;;;;;;;;;;;;21.90;29.22;98096.75;4904108;29;1022;-79
2021/09/16 00:08:09;;;;;;;;;;;;;;;21.84;29.57;98090.81;4904511;29;1357;-79
2021/09/16 00:10:34;;;;;;;;;;;;;;;21.81;29.23;98092.53;4904801;29;1972;-79
2021/09/16 00:13:00;;;;;;;;;;;;;;;21.95;29.26;98085.66;4904920;29;632;-79
2021/09/16 00:15:25;;;;;;;;;;;;;;;21.84;29.49;98085.16;4905248;29;637;-79
2021/09/16 00:17:51;;;;;;;;;;;;;;;21.93;29.08;98081.69;4904769;29;1349;-79
2021/09/16 00:20:16;;;;;;;;;;;;;;;21.87;29.41;98083.50;4904631;29;1059;-79
2021/09/16 00:22:42;;;;;;;;;;;;;;;21.95;29.06;98079.22;4908417;29;967;-79
2021/09/16 00:25:07;;;;;;;;;;;;;;;21.85;29.44;98081.88;4908681;29;984;-79
2021/09/16 00:27:33;;;;;;;;;;;;;;;21.95;29.05;98080.00;4908615;29;646;-79
2021/09/16 00:29:58;;;;;;;;;;;;;;;21.97;29.26;98088.88;4907519;29;1936;-79
2021/09/16 00:32:23;;;;;;;;;;;;;;;21.91;29.46;98095.50;4908472;29;672;-79
2021/09/16 00:34:49;;;;;;;;;;;;;;;21.93;29.43;98095.88;4908288;29;1111;-79
2021/09/16 00:37:16;;;;;;;;;;;;;;;21.99;29.30;98094.88;4908090;29;927;-79
2021/09/16 00:39:41;;;;;;;;;;;;;;;21.89;29.40;98093.13;4908080;29;1368;-79
2021/09/16 00:42:07;;;;;;;;;;;;;;;21.90;29.36;98093.91;4907873;29;728;-79
2021/09/16 00:44:32;;;;;;;;;;;;;;;21.97;29.11;98090.91;4908208;29;1030;-79
2021/09/16 00:46:58;;;;;;;;;;;;;;;21.95;29.41;98090.53;4908283;29;716;-79
2021/09/16 00:49:23;;;;;;;;;;;;;;;21.81;29.58;98086.84;4907616;29;1980;-78
2021/09/16 00:51:48;;;;;;;;;;;;;;;21.98;29.14;98090.44;4907872;29;915;-79
2021/09/16 00:54:14;;;;;;;;;;;;;;;21.90;29.17;98093.91;4907437;29;844;-79
2021/09/16 00:56:39;;;;;;;;;;;;;;;21.96;29.19;98087.25;4907438;29;705;-79
2021/09/16 00:59:05;;;;;;;;;;;;;;;21.92;29.23;98080.13;4907336;29;1990;-79
2021/09/16 01:01:31;;;;;;;;;;;;;;;22.00;28.99;98081.50;4907338;29;1398;-79
2021/09/16 01:03:56;;;;;;;;;;;;;;;21.91;29.24;98079.28;4907661;29;920;-79
2021/09/16 01:06:22;;;;;;;;;;;;;;;21.85;29.33;98076.19;4907098;29;875;-79
2021/09/16 01:08:48;;;;;;;;;;;;;;;22.00;28.80;98070.97;4907936;29;817;-79
2021/09/16 01:11:13;;;;;;;;;;;;;;;21.96;29.12;98075.13;4907513;29;1972;-79
2021/09/16 01:13:39;;;;;;;;;;;;;;;22.00;29.23;98078.66;4907609;29;1455;-79
2021/09/16 01:16:04;;;;;;;;;;;;;;;21.97;29.14;98076.75;4908133;29;641;-79
2021/09/16 01:18:30;;;;;;;;;;;;;;;21.95;29.26;98076.38;4907494;29;1069;-79
2021/09/16 01:20:55;;;;;;;;;;;;;;;22.00;28.91;98075.84;4907092;29;1353;-79
2021/09/16 01:23:24;;;;;;;;;;;;;;;22.02;28.78;98074.16;4907719;29;928;-79
2021/09/16 01:25:49;;;;;;;;;;;;;;;21.95;29.32;98073.53;4907113;29;719;-79
2021/09/16 01:28:15;;;;;;;;;;;;;;;22.03;29.18;98075.75;4907141;29;659;-79
2021/09/16 01:30:40;;;;;;;;;;;;;;;22.02;28.97;98062.00;4907402;29;1914;-79
2021/09/16 01:33:05;;;;;;;;;;;;;;;22.02;29.09;98062.00;4905919;29;1495;-79
2021/09/16 01:35:31;;;;;;;;;;;;;;;21.95;28.95;98065.03;4907121;29;880;-79
2021/09/16 01:37:56;;;;;;;;;;;;;;;21.91;29.08;98059.47;4907374;29;938;-78
2021/09/16 01:40:22;;;;;;;;;;;;;;;21.93;29.20;98064.69;4906787;29;692;-79
2021/09/16 01:42:47;;;;;;;;;;;;;;;21.91;29.34;98067.16;4906216;29;1433;-79
2021/09/16 01:45:13;;;;;;;;;;;;;;;22.04;28.99;98062.38;4907277;29;640;-79
2021/09/16 01:47:39;;;;;;;;;;;;;;;21.97;28.85;98059.75;4907198;29;876;-79
2021/09/16 01:50:05;;;;;;;;;;;;;;;21.93;29.30;98061.88;4906951;29;1961;-79
2021/09/16 01:52:30;;;;;;;;;;;;;;;21.81;29.42;98058.53;4906102;29;1405;-79
2021/09/16 01:54:56;;;;;;;;;;;;;;;21.85;29.11;98064.88;4907059;29;649;-79
2021/09/16 01:57:21;;;;;;;;;;;;;;;21.81;29.48;98063.38;4907157;29;616;-79
2021/09/16 01:59:46;;;;;;;;;;;;;;;21.88;29.18;98059.56;4907328;29;780;-79
2021/09/16 02:02:12;;;;;;;;;;;;;;;21.96;28.99;98055.28;4906669;29;899;-79
2021/09/16 02:04:37;;;;;;;;;;;;;;;21.81;29.59;98067.03;4906426;29;1360;-79
2021/09/16 02:07:03;;;;;;;;;;;;;;;21.83;29.30;98070.19;4906796;29;842;-79
2021/09/16 02:09:28;;;;;;;;;;;;;;;22.03;29.03;98063.63;4906775;29;1968;-79
2021/09/16 02:11:54;;;;;;;;;;;;;;;21.99;29.03;98062.91;4906764;29;652;-79
2021/09/16 02:14:19;;;;;;;;;;;;;;;21.94;29.14;98061.41;4905926;29;1573;-79
2021/09/16 02:16:45;;;;;;;;;;;;;;;22.03;28.92;98057.94;4906203;29;1373;-79
2021/09/16 02:19:10;;;;;;;;;;;;;;;21.81;29.31;98064.19;4906292;29;993;-79
2021/09/16 02:21:36;;;;;;;;;;;;;;;21.90;29.25;98059.91;4906695;29;1077;-79
2021/09/16 02:24:02;;;;;;;;;;;;;;;21.82;29.34;98065.78;4906265;29;1364;-79
2021/09/16 02:26:27;;;;;;;;;;;;;;;21.89;29.35;98064.78;4905850;29;624;-79
2021/09/16 02:28:53;;;;;;;;;;;;;;;21.93;28.95;98059.03;4905928;29;744;-79
2021/09/16 02:31:18;;;;;;;;;;;;;;;21.83;29.17;98056.03;4906129;29;1899;-80
2021/09/16 02:33:44;;;;;;;;;;;;;;;21.81;29.17;98061.38;4906126;29;926;-79
2021/09/16 02:36:21;;;;;;;;;;;;;;;21.99;29.12;98060.09;4905330;29;1327;-80
2021/09/16 02:38:47;;;;;;;;;;;;;;;21.89;28.89;98069.66;4906355;29;636;-79
2021/09/16 02:41:13;;;;;;;;;;;;;;;21.83;29.06;98061.69;4906328;29;725;-79
2021/09/16 02:43:38;;;;;;;;;;;;;;;21.91;28.94;98067.16;4905797;29;1054;-80
2021/09/16 02:46:03;;;;;;;;;;;;;;;21.88;29.18;98062.41;4905827;29;1306;-79
2021/09/16 02:48:29;;;;;;;;;;;;;;;21.95;28.95;98051.66;4905910;29;916;-79
2021/09/16 02:50:54;;;;;;;;;;;;;;;21.83;29.06;98056.03;4905896;29;1907;-79
2021/09/16 02:53:20;;;;;;;;;;;;;;;21.88;29.24;98062.41;4906024;29;684;-79
2021/09/16 02:55:45;;;;;;;;;;;;;;;21.88;29.14;98056.75;4905099;29;1455;-79
2021/09/16 02:58:11;;;;;;;;;;;;;;;21.91;29.04;98055.84;4905972;29;1479;-79
2021/09/16 03:00:36;;;;;;;;;;;;;;;21.97;28.91;98059.75;4905529;29;946;-79
2021/09/16 03:03:01;;;;;;;;;;;;;;;21.94;28.86;98060.63;4905571;29;897;-79
2021/09/16 03:05:27;;;;;;;;;;;;;;;21.96;29.28;98063.78;4905874;29;939;-79
2021/09/16 03:07:52;;;;;;;;;;;;;;;21.84;29.00;98063.28;4905534;29;1447;-79
2021/09/16 03:10:18;;;;;;;;;;;;;;;21.85;29.45;98066.91;4905601;29;1974;-79
2021/09/16 03:12:43;;;;;;;;;;;;;;;21.89;28.94;98069.66;4905844;29;645;-79
2021/09/16 03:15:09;;;;;;;;;;;;;;;21.96;28.77;98070.25;4905281;29;955;-79
2021/09/16 03:17:35;;;;;;;;;;;;;;;21.93;28.94;98070.38;4904205;29;1374;-79
2021/09/16 03:20:00;;;;;;;;;;;;;;;21.97;29.11;98076.75;4904951;29;1068;-79
2021/09/16 03:22:26;;;;;;;;;;;;;;;21.83;29.03;98070.19;4905676;29;608;-79
2021/09/16 03:24:51;;;;;;;;;;;;;;;21.28;29.10;97958.75;4905438;29;704;-79
2021/09/16 03:27:17;;;;;;;;;;;;;;;22.15;28.70;98081.94;4905494;29;683;-79
2021/09/16 03:29:42;;;;;;;;;;;;;;;22.01;29.05;98072.53;4904961;29;1978;-79
2021/09/16 03:32:08;;;;;;;;;;;;;;;21.98;28.92;98072.66;4905072;29;834;-79
2021/09/16 03:34:33;;;;;;;;;;;;;;;22.13;28.87;98073.09;4905263;29;1031;-79
2021/09/16 03:36:59;;;;;;;;;;;;;;;22.04;28.58;98076.53;4904779;29;678;-79
2021/09/16 03:39:24;;;;;;;;;;;;;;;22.07;28.64;98075.63;4905609;29;1329;-79
2021/09/16 03:41:50;;;;;;;;;;;;;;;21.96;29.08;98086.47;4905311;29;664;-79
2021/09/16 03:44:15;;;;;;;;;;;;;;;21.87;29.07;98094.81;4904782;29;1077;-79
2021/09/16 03:46:41;;;;;;;;;;;;;;;21.84;29.45;98117.09;4905013;29;917;-79
2021/09/16 03:49:06;;;;;;;;;;;;;;;21.87;29.24;98134.47;4904893;29;1313;-79
2021/09/16 03:51:32;;;;;;;;;;;;;;;21.88;29.37;98133.22;4905167;29;1976;-79
2021/09/16 03:53:57;;;;;;;;;;;;;;;21.95;29.34;98127.38;4905254;29;605;-79
2021/09/16 03:56:23;;;;;;;;;;;;;;;21.91;29.49;98126.66;4904557;29;670;-79
2021/09/16 03:58:48;;;;;;;;;;;;;;;21.91;29.30;98124.63;4904682;29;1084;-79
2021/09/16 04:01:14;;;;;;;;;;;;;;;21.92;29.63;98119.78;4904380;29;1345;-79
2021/09/16 04:03:39;;;;;;;;;;;;;;;21.92;29.54;98131.09;4904998;29;1301;-77
2021/09/16 04:06:05;;;;;;;;;;;;;;;21.89;29.33;98129.16;4905168;29;720;-80
2021/09/16 04:08:30;;;;;;;;;;;;;;;21.95;29.47;98130.19;4910313;29;1083;-79
2021/09/16 04:10:55;;;;;;;;;;;;;;;21.87;29.70;98123.16;4923587;29;1910;-79
2021/09/16 04:13:21;;;;;;;;;;;;;;;22.00;29.50;98116.28;4922863;29;864;-79
2021/09/16 04:15:46;;;;;;;;;;;;;;;22.05;29.25;98107.25;4923110;29;977;-79
2021/09/16 04:18:12;;;;;;;;;;;;;;;22.12;29.07;98105.50;4924022;29;632;-79
2021/09/16 04:20:37;;;;;;;;;;;;;;;22.04;29.36;98093.53;4923826;29;552;-79
2021/09/16 04:23:03;;;;;;;;;;;;;;;21.95;29.25;98087.72;4924209;29;724;-79
2021/09/16 04:25:28;;;;;;;;;;;;;;;22.01;29.37;98077.41;4923814;29;684;-79
2021/09/16 04:27:54;;;;;;;;;;;;;;;21.89;29.42;98081.00;4923074;29;1010;-79
2021/09/16 04:30:19;;;;;;;;;;;;;;;21.88;29.49;98076.56;4923350;29;1964;-79
2021/09/16 04:32:45;;;;;;;;;;;;;;;21.90;29.27;98085.41;4923456;29;984;-79
2021/09/16 04:35:10;;;;;;;;;;;;;;;21.86;29.65;98094.00;4922596;29;1050;-78
2021/09/16 04:37:36;;;;;;;;;;;;;;;21.92;29.36;98097.13;4912827;29;1252;-79
2021/09/16 04:40:01;;;;;;;;;;;;;;;21.95;29.25;98101.88;4912375;29;1324;-79
2021/09/16 04:42:27;;;;;;;;;;;;;;;22.05;29.42;98100.78;4909080;29;1193;-79
2021/09/16 04:44:52;;;;;;;;;;;;;;;22.04;29.02;98093.53;4911802;29;1217;-78
2021/09/16 04:47:17;;;;;;;;;;;;;;;22.06;29.13;98094.66;4913617;29;1172;-77
2021/09/16 04:49:43;;;;;;;;;;;;;;;21.95;29.35;98090.53;4912849;29;1967;-77
2021/09/16 04:52:09;;;;;;;;;;;;;;;21.96;29.38;98092.13;4897368;29;1333;-78
2021/09/16 04:54:34;;;;;;;;;;;;;;;21.99;29.33;98108.25;4904114;29;1201;-78
2021/09/16 04:57:00;;;;;;;;;;;;;;;21.89;29.70;98110.13;4909034;29;1188;-79
2021/09/16 04:59:26;;;;;;;;;;;;;;;22.07;29.30;98109.63;4906271;29;1220;-79
2021/09/16 05:01:51;;;;;;;;;;;;;;;21.98;29.31;98110.28;4913219;29;1201;-79
2021/09/16 05:04:17;;;;;;;;;;;;;;;22.03;29.51;98108.94;4913048;29;1374;-79
2021/09/16 05:06:43;;;;;;;;;;;;;;;21.95;29.33;98107.53;4905245;29;1386;-79
2021/09/16 05:09:08;;;;;;;;;;;;;;;22.07;29.16;98103.97;4916315;29;1189;-80
2021/09/16 05:11:40;;;;;;;;;;;;;;;22.04;29.63;98104.88;4915802;29;1907;-79
2021/09/16 05:14:05;;;;;;;;;;;;;;;21.95;29.38;98101.88;4909481;29;1355;-78
2021/09/16 05:16:31;;;;;;;;;;;;;;;21.99;29.33;98108.25;4898081;29;1222;-79
2021/09/16 05:18:57;;;;;;;;;;;;;;;22.05;29.49;98118.59;4916271;29;1188;-79
2021/09/16 05:21:22;;;;;;;;;;;;;;;22.09;29.32;98113.63;4917792;29;1347;-79
2021/09/16 05:23:48;;;;;;;;;;;;;;;22.08;29.58;98116.91;4906853;29;1255;-79
2021/09/16 05:26:13;;;;;;;;;;;;;;;22.01;29.39;98105.75;4909427;29;1232;-79
2021/09/16 05:28:39;;;;;;;;;;;;;;;22.15;29.34;98116.75;4916194;29;1296;-79
2021/09/16 05:31:04;;;;;;;;;;;;;;;22.21;29.15;98120.63;4906519;29;1911;-77
2021/09/16 05:33:30;;;;;;;;;;;;;;;22.12;29.45;98111.94;4907225;29;1226;-79
2021/09/16 05:35:55;;;;;;;;;;;;;;;21.96;29.73;98109.13;4916710;29;1149;-78
2021/09/16 05:38:21;;;;;;;;;;;;;;;22.00;29.73;98119.13;4915712;29;1304;-79
2021/09/16 05:40:46;;;;;;;;;;;;;;;21.96;29.85;98117.63;4912650;29;1138;-79
2021/09/16 05:43:12;;;;;;;;;;;;;;;22.21;29.10;98114.94;4910924;29;1228;-79
2021/09/16 05:45:38;;;;;;;;;;;;;;;21.99;29.52;98119.56;4914589;29;1209;-79
2021/09/16 05:48:04;;;;;;;;;;;;;;;21.85;29.93;98132.84;4906783;29;1271;-79
2021/09/16 05:50:29;;;;;;;;;;;;;;;21.87;29.73;98128.81;4915562;29;1910;-79
2021/09/16 05:52:55;;;;;;;;;;;;;;;21.92;29.97;98137.56;4915873;29;1363;-79
2021/09/16 05:55:21;;;;;;;;;;;;;;;22.07;29.44;98149.31;4914289;29;1355;-79
2021/09/16 05:57:46;;;;;;;;;;;;;;;21.98;29.53;98149.16;4914004;29;1145;-79
2021/09/16 06:00:12;;;;;;;;;;;;;;;22.07;29.62;98150.13;4915753;29;1150;-79
2021/09/16 06:02:41;;;;;;;;;;;;;;;22.08;29.40;98157.38;4915392;29;1287;-79
2021/09/16 06:05:06;;;;;;;;;;;;;;;22.05;29.49;98160.28;4916914;29;1132;-77
2021/09/16 06:07:34;;;;;;;;;;;;;;;22.03;29.52;98159.97;4906671;29;1216;-78
2021/09/16 06:10:00;;;;;;;;;;;;;;;21.96;29.63;98151.63;4897918;29;1903;-79
2021/09/16 06:12:27;;;;;;;;;;;;;;;21.93;29.96;98155.34;4906683;29;1280;-79
2021/09/16 06:14:53;;;;;;;;;;;;;;;22.05;29.71;98163.13;4908220;29;1185;-79
2021/09/16 06:17:18;;;;;;;;;;;;;;;22.00;29.85;98166.50;4914844;29;1194;-78
2021/09/16 06:19:44;;;;;;;;;;;;;;;22.10;29.50;98162.59;4913971;29;1200;-79
2021/09/16 06:22:09;;;;;;;;;;;;;;;22.09;29.40;98169.50;4900178;29;1292;-78
2021/09/16 06:24:35;;;;;;;;;;;;;;;22.09;29.53;98166.66;4913593;29;1197;-79
2021/09/16 06:27:00;;;;;;;;;;;;;;;20.80;29.73;97974.50;4911422;29;1209;-79
2021/09/16 06:29:26;;;;;;;;;;;;;;;22.04;29.46;98167.22;4915119;29;1903;-79
2021/09/16 06:31:51;;;;;;;;;;;;;;;21.94;30.00;98162.59;4915183;29;1232;-78
2021/09/16 06:34:18;;;;;;;;;;;;;;;22.07;29.78;98171.97;4899838;29;1324;-79
2021/09/16 06:36:44;;;;;;;;;;;;;;;22.01;29.73;98168.09;4905345;29;1300;-78
2021/09/16 06:39:10;;;;;;;;;;;;;;;22.14;29.64;98177.50;4914857;29;1110;-80
2021/09/16 06:41:35;;;;;;;;;;;;;;;22.00;29.74;98183.50;4895082;29;1181;-78
2021/09/16 06:44:01;;;;;;;;;;;;;;;22.06;30.08;98181.72;4913870;29;1331;-79
2021/09/16 06:46:26;;;;;;;;;;;;;;;22.16;29.41;98182.72;4915429;29;1157;-78
2021/09/16 06:48:52;;;;;;;;;;;;;;;22.13;29.71;98180.78;4905300;29;1105;-79
2021/09/16 06:51:17;;;;;;;;;;;;;;;22.12;29.52;98191.31;4905983;29;1976;-79
2021/09/16 06:53:43;;;;;;;;;;;;;;;22.07;29.96;98186.13;4904775;29;966;-79
2021/09/16 06:56:08;;;;;;;;;;;;;;;22.06;29.74;98176.06;4907030;29;1059;-79
2021/09/16 06:58:34;;;;;;;;;;;;;;;22.00;29.96;98183.50;4905649;29;1224;-78
2021/09/16 07:00:59;;;;;;;;;;;;;;;22.06;29.90;98187.38;4905860;29;668;-79
2021/09/16 07:03:25;;;;;;;;;;;;;;;22.06;29.96;98193.06;4906048;29;801;-79
2021/09/16 07:05:50;;;;;;;;;;;;;;;22.01;29.98;98197.22;4905889;29;584;-79
2021/09/16 07:08:16;;;;;;;;;;;;;;;22.18;29.74;98206.56;4905494;29;966;-79
2021/09/16 07:10:41;;;;;;;;;;;;;;;22.12;29.72;98199.00;4905251;29;1911;-79
2021/09/16 07:13:07;;;;;;;;;;;;;;;22.08;29.71;98201.94;4905651;29;943;-79
2021/09/16 07:15:33;;;;;;;;;;;;;;;22.07;29.65;98200.31;4905664;29;674;-79
2021/09/16 07:18:01;;;;;;;;;;;;;;;22.15;29.78;98204.59;4905699;29;680;-79
2021/09/16 07:20:26;;;;;;;;;;;;;;;22.11;29.57;98201.06;4905610;29;693;-79
2021/09/16 07:22:52;;;;;;;;;;;;;;;22.04;29.95;98201.22;4905243;29;983;-79
2021/09/16 07:25:17;;;;;;;;;;;;;;;22.10;29.91;98193.75;4905200;29;896;-79
2021/09/16 07:27:43;;;;;;;;;;;;;;;21.99;30.11;98204.56;4905392;29;868;-79
2021/09/16 07:30:09;;;;;;;;;;;;;;;22.04;29.82;98201.22;4904832;29;1996;-79
2021/09/16 07:32:43;;;;;;;;;;;;;;;22.12;29.87;98205.47;4909667;29;1206;-79
2021/09/16 07:35:09;;;;;;;;;;;;;;;22.28;29.33;98216.81;4910890;29;1117;-79
2021/09/16 07:37:38;;;;;;;;;;;;;;;22.11;29.94;98206.72;4904922;29;1169;-79
2021/09/16 07:40:04;;;;;;;;;;;;;;;22.08;29.68;98207.59;4907166;29;1232;-79
2021/09/16 07:42:29;;;;;;;;;;;;;;;22.06;29.65;98201.56;4910769;29;1209;-79
2021/09/16 07:44:58;;;;;;;;;;;;;;;22.10;29.79;98207.94;4914523;29;1165;-79
2021/09/16 07:47:23;;;;;;;;;;;;;;;22.16;29.66;98202.56;4904944;29;1307;-79
2021/09/16 07:49:49;;;;;;;;;;;;;;;22.00;29.77;98200.50;4910750;29;1911;-78
2021/09/16 07:52:15;;;;;;;;;;;;;;;22.11;29.46;98195.38;4907761;29;1150;-80
2021/09/16 07:54:40;;;;;;;;;;;;;;;22.11;29.70;98192.53;4913754;29;1221;-79
2021/09/16 07:57:06;;;;;;;;;;;;;;;22.07;29.71;98201.13;4904382;29;1078;-79
2021/09/16 07:59:31;;;;;;;;;;;;;;;22.05;29.62;98203.59;4903941;29;1185;-78
2021/09/16 08:01:57;;;;;;;;;;;;;;;22.13;29.60;98209.13;4914324;29;1295;-79
2021/09/16 08:04:22;;;;;;;;;;;;;;;22.16;29.61;98208.22;4913685;29;1308;-79
2021/09/16 08:06:48;;;;;;;;;;;;;;;22.09;29.48;98209.19;4908464;29;1257;-79
2021/09/16 08:09:13;;;;;;;;;;;;;;;22.14;29.45;98205.84;4903333;29;1075;-79
2021/09/16 08:11:39;;;;;;;;;;;;;;;22.07;29.64;98203.13;4910475;29;1914;-79
2021/09/16 08:14:05;;;;;;;;;;;;;;;22.17;29.42;98204.16;4912136;29;1158;-78
2021/09/16 08:16:31;;;;;;;;;;;;;;;22.01;29.92;98202.09;4914511;29;1192;-79
2021/09/16 08:18:56;;;;;;;;;;;;;;;22.08;29.82;98201.94;4914326;29;1287;-79
2021/09/16 08:21:23;;;;;;;;;;;;;;;22.06;29.64;98204.38;4911956;29;1176;-77
2021/09/16 08:23:49;;;;;;;;;;;;;;;22.24;29.48;98203.97;4910491;29;1142;-79
2021/09/16 08:26:14;;;;;;;;;;;;;;;22.17;29.78;98196.44;4905373;29;1193;-79
2021/09/16 08:28:40;;;;;;;;;;;;;;;22.15;29.82;98196.09;4914630;29;1169;-78
2021/09/16 08:31:05;;;;;;;;;;;;;;;22.08;29.97;98190.59;4912750;29;1975;-78
2021/09/16 08:33:31;;;;;;;;;;;;;;;22.03;29.77;98196.78;4913868;29;1299;-78
2021/09/16 08:35:57;;;;;;;;;;;;;;;22.05;29.98;98197.13;4909377;29;1201;-78
2021/09/16 08:38:22;;;;;;;;;;;;;;;22.17;29.53;98199.28;4911870;29;1260;-79
2021/09/16 08:40:48;;;;;;;;;;;;;;;22.16;29.55;98197.69;4912164;29;1181;-77
2021/09/16 08:43:13;;;;;;;;;;;;;;;22.10;29.62;98193.75;4916357;29;1346;-78
2021/09/16 08:45:39;;;;;;;;;;;;;;;22.10;29.75;98188.91;4907969;29;1215;-78
2021/09/16 08:48:04;;;;;;;;;;;;;;;22.21;29.51;98188.63;4917244;29;1185;-79
2021/09/16 08:50:30;;;;;;;;;;;;;;;22.16;29.98;98192.00;4915407;29;1910;-79
2021/09/16 08:52:56;;;;;;;;;;;;;;;22.08;29.96;98185.72;4907991;29;872;-80
2021/09/16 08:55:24;;;;;;;;;;;;;;;22.11;30.07;98184.03;4908159;29;1053;-79
2021/09/16 08:57:54;;;;;;;;;;;;;;;22.08;29.98;98174.38;4907085;29;1049;-79
2021/09/16 09:00:19;;;;;;;;;;;;;;;22.27;29.61;98181.19;4908058;29;656;-79
2021/09/16 09:02:46;;;;;;;;;;;;;;;22.25;29.46;98177.22;4907538;29;632;-80
2021/09/16 09:05:11;;;;;;;;;;;;;;;22.21;29.57;98182.19;4907689;29;889;-79
2021/09/16 09:07:38;;;;;;;;;;;;;;;22.20;29.42;98181.38;4907030;29;970;-79
2021/09/16 09:10:03;;;;;;;;;;;;;;;22.06;29.97;98176.06;4907187;29;1973;-79
2021/09/16 09:12:35;;;;;;;;;;;;;;;22.32;29.54;98182.69;4907853;29;663;-78
2021/09/16 09:15:01;;;;;;;;;;;;;;;22.15;29.82;98176.25;4908211;29;715;-79
2021/09/16 09:17:30;;;;;;;;;;;;;;;22.15;30.05;98181.94;4907817;29;663;-80
2021/09/16 09:19:55;;;;;;;;;;;;;;;22.28;29.95;98170.66;4906886;29;965;-79
2021/09/16 09:22:31;;;;;;;;;;;;;;;22.19;30.06;98174.13;4906966;29;880;-80
2021/09/16 09:24:58;;;;;;;;;;;;;;;22.03;30.13;98171.28;4907724;29;820;-79
2021/09/16 09:27:24;;;;;;;;;;;;;;;22.13;30.23;98169.47;4907588;29;617;-79
2021/09/16 09:30:10;;;;;;;;;;;;;;;22.19;29.86;98179.81;4906288;29;1903;-78
2021/09/16 09:32:44;;;;;;;;;;;;;;;22.22;29.86;98167.56;4906893;29;656;-79
2021/09/16 09:35:26;;;;;;;;;;;;;;;22.31;29.91;98164.09;4907140;29;899;-79
2021/09/16 09:37:52;;;;;;;;;;;;;;;22.21;30.19;98165.97;4907939;29;1087;-79
2021/09/16 09:40:26;;;;;;;;;;;;;;;22.16;30.26;98169.34;4915726;29;1236;-79
2021/09/16 09:42:52;;;;;;;;;;;;;;;22.30;30.00;98163.31;4914434;29;1180;-79
2021/09/16 09:45:27;;;;;;;;;;;;;;;22.41;29.58;98167.88;4915677;29;1324;-79
2021/09/16 09:47:53;;;;;;;;;;;;;;;22.23;30.08;98172.00;4916310;29;1102;-78
2021/09/16 09:50:25;;;;;;;;;;;;;;;22.24;30.08;98173.59;4909934;29;1888;-78
2021/09/16 09:52:51;;;;;;;;;;;;;;;22.21;30.32;98171.63;4911543;29;1165;-79
2021/09/16 09:55:17;;;;;;;;;;;;;;;22.30;30.20;98154.00;4913871;29;1086;-77
2021/09/16 09:57:43;;;;;;;;;;;;;;;22.35;29.84;98151.41;4906705;29;1338;-78
2021/09/16 10:00:12;;;;;;;;;;;;;;;22.18;30.51;98155.53;4916954;29;1347;-77
2021/09/16 10:02:42;;;;;;;;;;;;;;;22.18;30.51;98161.22;4905841;29;1284;-79
2021/09/16 10:05:20;;;;;;;;;;;;;;;22.12;30.59;98157.28;4913524;29;1316;-79
2021/09/16 10:07:46;;;;;;;;;;;;;;;22.28;30.34;98150.81;4910744;29;1237;-77
2021/09/16 10:10:15;;;;;;;;;;;;;;;22.14;30.32;98154.84;4916763;29;1969;-79
2021/09/16 10:12:41;;;;;;;;;;;;;;;22.23;30.16;98149.31;4906981;29;1051;-82
2021/09/16 10:15:07;;;;;;;;;;;;;;;22.29;30.44;98150.38;4921797;29;1390;-79
2021/09/16 10:17:33;;;;;;;;;;;;;;;22.38;30.34;98146.09;4925159;29;668;-78
2021/09/16 10:19:58;;;;;;;;;;;;;;;22.29;30.27;98139.03;4925118;29;832;-78
2021/09/16 10:22:24;;;;;;;;;;;;;;;22.43;30.23;98137.03;4925171;29;860;-79
2021/09/16 10:24:51;;;;;;;;;;;;;;;22.22;30.62;98138.41;4924817;29;991;-79
2021/09/16 10:27:36;;;;;;;;;;;;;;;22.20;30.47;98130.38;4924333;29;778;-79
2021/09/16 10:30:20;;;;;;;;;;;;;;;22.33;30.15;98139.75;4925407;29;1895;-79
2021/09/16 10:32:45;;;;;;;;;;;;;;;22.32;30.20;98132.47;4909716;29;1093;-79
2021/09/16 10:35:14;;;;;;;;;;;;;;;22.24;30.57;98131.06;4905627;29;1352;-78
2021/09/16 10:37:40;;;;;;;;;;;;;;;22.29;30.30;98127.69;4907695;29;1329;-79
2021/09/16 10:40:21;;;;;;;;;;;;;;;22.33;30.44;98136.91;4906243;29;1343;-79
2021/09/16 10:43:05;;;;;;;;;;;;;;;22.27;30.38;98135.84;4915255;29;1457;-79
2021/09/16 10:45:31;;;;;;;;;;;;;;;22.31;30.41;98125.19;4914661;29;1221;-78
2021/09/16 10:48:26;;;;;;;;;;;;;;;22.47;30.20;98127.19;4913587;29;1285;-78
2021/09/16 10:50:54;;;;;;;;;;;;;;;22.34;30.55;98130.00;4898703;29;1990;-79
2021/09/16 10:53:40;;;;;;;;;;;;;;;22.34;30.39;98117.84;4911497;29;1173;-79
2021/09/16 10:56:25;;;;;;;;;;;;;;;22.41;30.51;98122.53;4913331;29;1135;-79
2021/09/16 10:58:54;;;;;;;;;;;;;;;22.42;30.21;98124.09;4915132;29;1261;-79
2021/09/16 11:01:38;;;;;;;;;;;;;;;22.23;30.69;98123.81;4905445;29;1239;-79
2021/09/16 11:04:04;;;;;;;;;;;;;;;22.14;30.82;98115.16;4905698;29;692;-79
2021/09/16 11:06:41;;;;;;;;;;;;;;;22.21;30.64;98114.94;4905436;29;1044;-79
2021/09/16 11:09:07;;;;;;;;;;;;;;;22.26;30.31;98111.56;4905453;29;931;-79
2021/09/16 11:11:47;;;;;;;;;;;;;;;22.35;30.24;98108.91;4905610;29;1977;-79
2021/09/16 11:14:24;;;;;;;;;;;;;;;22.42;30.38;98107.09;4905684;29;742;-79
2021/09/16 11:16:52;;;;;;;;;;;;;;;22.29;30.57;98110.69;4905658;29;784;-79
2021/09/16 11:19:18;;;;;;;;;;;;;;;22.27;30.64;98124.50;4904893;29;691;-79
2021/09/16 11:21:43;;;;;;;;;;;;;;;22.38;30.44;98109.22;4904184;29;1130;-79
2021/09/16 11:24:08;;;;;;;;;;;;;;;22.41;30.53;98105.50;4905356;29;895;-79
2021/09/16 11:26:34;;;;;;;;;;;;;;;22.29;30.61;98102.19;4905358;29;879;-79
2021/09/16 11:29:01;;;;;;;;;;;;;;;22.33;30.42;98099.25;4905416;29;636;-79
2021/09/16 11:31:26;;;;;;;;;;;;;;;22.40;30.38;98099.06;4905340;29;1969;-79
2021/09/16 11:34:05;;;;;;;;;;;;;;;22.30;30.56;98094.47;4904466;29;837;-79
2021/09/16 11:36:31;;;;;;;;;;;;;;;22.28;30.35;98097.75;4905216;29;1076;-79
2021/09/16 11:39:12;;;;;;;;;;;;;;;22.30;30.25;98100.94;4905004;29;911;-79
2021/09/16 11:41:37;;;;;;;;;;;;;;;22.27;30.35;98096.16;4905325;29;696;-79
2021/09/16 11:44:07;;;;;;;;;;;;;;;22.11;30.89;98093.38;4905025;29;1104;-79
2021/09/16 11:46:32;;;;;;;;;;;;;;;22.24;30.43;98097.06;4904545;29;672;-79
2021/09/16 11:49:01;;;;;;;;;;;;;;;22.24;30.72;98091.41;4905322;29;672;-79
2021/09/16 11:51:27;;;;;;;;;;;;;;;22.30;30.61;98088.81;4905095;29;1899;-79
2021/09/16 11:53:52;;;;;;;;;;;;;;;22.34;30.19;98090.31;4904903;29;876;-79
2021/09/16 11:56:18;;;;;;;;;;;;;;;22.21;30.66;98080.94;4903891;29;833;-79
2021/09/16 11:58:45;;;;;;;;;;;;;;;22.21;30.46;98089.44;4905122;29;608;-79
2021/09/16 12:01:12;;;;;;;;;;;;;;;22.28;30.61;98080.75;4905135;29;668;-78
2021/09/16 12:03:41;;;;;;;;;;;;;;;22.33;30.51;98079.41;4905023;29;660;-79
2021/09/16 12:06:06;;;;;;;;;;;;;;;22.35;30.26;98080.53;4903289;29;858;-79
2021/09/16 12:08:33;;;;;;;;;;;;;;;22.32;30.52;98075.75;4904883;29;920;-79
2021/09/16 12:11:06;;;;;;;;;;;;;;;22.33;30.46;98071.72;4904976;29;1899;-79
2021/09/16 12:13:32;;;;;;;;;;;;;;;22.38;30.30;98075.22;4904895;29;684;-78
2021/09/16 12:16:00;;;;;;;;;;;;;;;22.35;30.38;98069.22;4904385;29;691;-79
2021/09/16 12:18:26;;;;;;;;;;;;;;;22.48;30.05;98060.72;4908066;29;687;-79
2021/09/16 12:20:52;;;;;;;;;;;;;;;22.39;30.18;98057.78;4907994;29;985;-79
2021/09/16 12:23:19;;;;;;;;;;;;;;;22.45;30.46;98060.84;4892216;29;883;-79
2021/09/16 12:25:48;;;;;;;;;;;;;;;22.41;30.10;98054.47;4876447;29;1283;-79
2021/09/16 12:28:14;;;;;;;;;;;;;;;22.35;30.46;98057.88;4907523;29;829;-79
2021/09/16 12:30:39;;;;;;;;;;;;;;;22.38;30.19;98049.69;4877066;29;1907;-79
2021/09/16 12:33:23;;;;;;;;;;;;;;;22.48;30.16;98048.59;4908767;29;611;-79
2021/09/16 12:36:05;;;;;;;;;;;;;;;22.30;30.25;98043.44;4908282;29;873;-79
2021/09/16 12:38:36;;;;;;;;;;;;;;;22.45;30.24;98046.66;4907617;29;873;-79
2021/09/16 12:41:18;;;;;;;;;;;;;;;22.29;30.56;98048.31;4908637;29;619;-79
2021/09/16 12:43:44;;;;;;;;;;;;;;;22.31;30.48;98045.84;4908191;29;1075;-79
2021/09/16 12:46:16;;;;;;;;;;;;;;;22.21;30.82;98046.94;4908677;29;877;-79
2021/09/16 12:48:42;;;;;;;;;;;;;;;22.25;30.70;98047.63;4908336;29;670;-79
2021/09/16 12:51:08;;;;;;;;;;;;;;;22.41;30.38;98037.47;4907907;29;1987;-79
2021/09/16 12:53:40;;;;;;;;;;;;;;;22.36;30.58;98035.97;4906591;29;902;-79
2021/09/16 12:56:07;;;;;;;;;;;;;;;22.30;30.60;98044.25;4906982;29;872;-79
2021/09/16 12:58:33;;;;;;;;;;;;;;;22.28;30.74;98038.25;4907610;29;696;-79